sensor_id;sensor_type;location;lat;lon;timestamp;P1;durP1;ratioP1;P2;durP2;ratioP2
69542;SDS011;56762;49.494;11.768;2023-06-26T00:00:02;6.32;;;4.15;;
69542;SDS011;56762;49.494;11.768;2023-06-26T00:02:31;7.65;;;4.40;;
69542;SDS011;56762;49.494;11.768;2023-06-26T00:05:01;6.97;;;4.95;;
69542;SDS011;56762;49.494;11.768;2023-06-26T00:07:29;7.23;;;4.00;;
69542;SDS011;56762;49.494;11.768;2023-06-26T00:09:57;6.18;;;4.05;;
69542;SDS011;56762;49.494;11.768;2023-06-26T00:12:25;6.93;;;4.57;;
69542;SDS011;56762;49.494;11.768;2023-06-26T00:14:53;7.60;;;4.30;;
69542;SDS011;56762;49.494;11.768;2023-06-26T00:17:21;6.65;;;4.32;;
69542;SDS011;56762;49.494;11.768;2023-06-26T00:19:49;7.80;;;4.30;;
69542;SDS011;56762;49.494;11.768;2023-06-26T00:22:18;6.72;;;4.80;;
69542;SDS011;56762;49.494;11.768;2023-06-26T00:24:46;6.18;;;4.28;;
69542;SDS011;56762;49.494;11.768;2023-06-26T00:27:14;6.78;;;4.50;;
69542;SDS011;56762;49.494;11.768;2023-06-26T00:29:42;6.38;;;4.60;;
69542;SDS011;56762;49.494;11.768;2023-06-26T00:32:09;8.20;;;4.50;;
69542;SDS011;56762;49.494;11.768;2023-06-26T00:34:37;8.20;;;4.55;;
69542;SDS011;56762;49.494;11.768;2023-06-26T00:37:05;7.45;;;4.40;;
69542;SDS011;56762;49.494;11.768;2023-06-26T00:39:34;6.53;;;4.05;;
69542;SDS011;56762;49.494;11.768;2023-06-26T00:42:02;6.90;;;4.18;;
69542;SDS011;56762;49.494;11.768;2023-06-26T00:44:32;7.63;;;4.53;;
69542;SDS011;56762;49.494;11.768;2023-06-26T00:46:59;7.50;;;4.30;;
69542;SDS011;56762;49.494;11.768;2023-06-26T00:49:28;6.75;;;4.40;;
69542;SDS011;56762;49.494;11.768;2023-06-26T00:51:56;7.10;;;4.50;;
69542;SDS011;56762;49.494;11.768;2023-06-26T00:54:24;7.55;;;4.93;;
69542;SDS011;56762;49.494;11.768;2023-06-26T00:56:53;7.57;;;4.60;;
69542;SDS011;56762;49.494;11.768;2023-06-26T00:59:20;7.05;;;4.57;;
69542;SDS011;56762;49.494;11.768;2023-06-26T01:01:48;7.45;;;4.72;;
69542;SDS011;56762;49.494;11.768;2023-06-26T01:04:16;7.35;;;4.20;;
69542;SDS011;56762;49.494;11.768;2023-06-26T01:06:45;7.35;;;4.80;;
69542;SDS011;56762;49.494;11.768;2023-06-26T01:09:16;9.73;;;4.67;;
69542;SDS011;56762;49.494;11.768;2023-06-26T01:11:45;7.13;;;4.13;;
69542;SDS011;56762;49.494;11.768;2023-06-26T01:14:15;6.57;;;4.57;;
69542;SDS011;56762;49.494;11.768;2023-06-26T01:16:43;6.95;;;4.43;;
69542;SDS011;56762;49.494;11.768;2023-06-26T01:19:15;6.50;;;3.92;;
69542;SDS011;56762;49.494;11.768;2023-06-26T01:21:54;6.20;;;4.20;;
69542;SDS011;56762;49.494;11.768;2023-06-26T01:24:25;8.63;;;4.55;;
69542;SDS011;56762;49.494;11.768;2023-06-26T01:27:02;6.63;;;4.40;;
69542;SDS011;56762;49.494;11.768;2023-06-26T01:29:30;7.15;;;4.63;;
69542;SDS011;56762;49.494;11.768;2023-06-26T01:31:59;7.65;;;5.00;;
69542;SDS011;56762;49.494;11.768;2023-06-26T01:34:28;7.00;;;4.40;;
69542;SDS011;56762;49.494;11.768;2023-06-26T01:36:57;7.78;;;4.93;;
69542;SDS011;56762;49.494;11.768;2023-06-26T01:39:25;6.95;;;4.32;;
69542;SDS011;56762;49.494;11.768;2023-06-26T01:41:52;7.30;;;4.72;;
69542;SDS011;56762;49.494;11.768;2023-06-26T01:44:25;7.43;;;4.72;;
69542;SDS011;56762;49.494;11.768;2023-06-26T01:46:59;7.50;;;4.50;;
69542;SDS011;56762;49.494;11.768;2023-06-26T01:49:32;8.02;;;4.93;;
69542;SDS011;56762;49.494;11.768;2023-06-26T01:52:07;7.45;;;4.65;;
69542;SDS011;56762;49.494;11.768;2023-06-26T01:54:48;8.35;;;5.07;;
69542;SDS011;56762;49.494;11.768;2023-06-26T01:57:21;10.93;;;6.50;;
69542;SDS011;56762;49.494;11.768;2023-06-26T01:59:52;18.30;;;9.07;;
69542;SDS011;56762;49.494;11.768;2023-06-26T02:02:21;17.90;;;8.73;;
69542;SDS011;56762;49.494;11.768;2023-06-26T02:04:51;13.70;;;7.63;;
69542;SDS011;56762;49.494;11.768;2023-06-26T02:07:19;11.27;;;6.70;;
69542;SDS011;56762;49.494;11.768;2023-06-26T02:09:46;9.55;;;5.40;;
69542;SDS011;56762;49.494;11.768;2023-06-26T02:12:14;10.97;;;6.37;;
69542;SDS011;56762;49.494;11.768;2023-06-26T02:14:42;13.32;;;7.00;;
69542;SDS011;56762;49.494;11.768;2023-06-26T02:17:11;10.77;;;6.35;;
69542;SDS011;56762;49.494;11.768;2023-06-26T02:19:39;9.05;;;5.18;;
69542;SDS011;56762;49.494;11.768;2023-06-26T02:22:14;7.40;;;5.00;;
69542;SDS011;56762;49.494;11.768;2023-06-26T02:24:42;8.10;;;4.87;;
69542;SDS011;56762;49.494;11.768;2023-06-26T02:27:10;8.13;;;4.57;;
69542;SDS011;56762;49.494;11.768;2023-06-26T02:29:38;6.45;;;4.03;;
69542;SDS011;56762;49.494;11.768;2023-06-26T02:32:07;7.25;;;4.22;;
69542;SDS011;56762;49.494;11.768;2023-06-26T02:34:36;7.53;;;4.68;;
69542;SDS011;56762;49.494;11.768;2023-06-26T02:37:04;6.80;;;4.37;;
69542;SDS011;56762;49.494;11.768;2023-06-26T02:39:34;7.40;;;4.13;;
69542;SDS011;56762;49.494;11.768;2023-06-26T02:42:01;8.75;;;4.63;;
69542;SDS011;56762;49.494;11.768;2023-06-26T02:44:29;7.25;;;4.10;;
69542;SDS011;56762;49.494;11.768;2023-06-26T02:46:57;9.05;;;4.25;;
69542;SDS011;56762;49.494;11.768;2023-06-26T02:49:25;7.80;;;4.53;;
69542;SDS011;56762;49.494;11.768;2023-06-26T02:51:54;6.78;;;4.60;;
69542;SDS011;56762;49.494;11.768;2023-06-26T02:54:22;7.32;;;4.38;;
69542;SDS011;56762;49.494;11.768;2023-06-26T02:56:50;7.53;;;4.38;;
69542;SDS011;56762;49.494;11.768;2023-06-26T02:59:19;7.78;;;4.75;;
69542;SDS011;56762;49.494;11.768;2023-06-26T03:01:47;6.10;;;4.20;;
69542;SDS011;56762;49.494;11.768;2023-06-26T03:04:14;8.82;;;4.55;;
69542;SDS011;56762;49.494;11.768;2023-06-26T03:06:44;6.45;;;4.53;;
69542;SDS011;56762;49.494;11.768;2023-06-26T03:09:13;8.15;;;4.80;;
69542;SDS011;56762;49.494;11.768;2023-06-26T03:11:42;7.30;;;4.38;;
69542;SDS011;56762;49.494;11.768;2023-06-26T03:14:10;7.47;;;4.60;;
69542;SDS011;56762;49.494;11.768;2023-06-26T03:16:38;7.20;;;4.70;;
69542;SDS011;56762;49.494;11.768;2023-06-26T03:19:06;6.85;;;4.10;;
69542;SDS011;56762;49.494;11.768;2023-06-26T03:21:34;7.72;;;4.20;;
69542;SDS011;56762;49.494;11.768;2023-06-26T03:24:02;8.02;;;4.93;;
69542;SDS011;56762;49.494;11.768;2023-06-26T03:26:31;6.63;;;4.10;;
69542;SDS011;56762;49.494;11.768;2023-06-26T03:28:59;8.07;;;4.53;;
69542;SDS011;56762;49.494;11.768;2023-06-26T03:31:27;7.65;;;4.95;;
69542;SDS011;56762;49.494;11.768;2023-06-26T03:33:55;7.03;;;4.40;;
69542;SDS011;56762;49.494;11.768;2023-06-26T03:36:22;7.93;;;4.07;;
69542;SDS011;56762;49.494;11.768;2023-06-26T03:38:50;7.17;;;4.67;;
69542;SDS011;56762;49.494;11.768;2023-06-26T03:41:23;6.53;;;3.85;;
69542;SDS011;56762;49.494;11.768;2023-06-26T03:43:52;7.72;;;4.63;;
69542;SDS011;56762;49.494;11.768;2023-06-26T03:46:21;7.43;;;4.22;;
69542;SDS011;56762;49.494;11.768;2023-06-26T03:48:49;8.18;;;4.60;;
69542;SDS011;56762;49.494;11.768;2023-06-26T03:51:17;7.87;;;4.73;;
69542;SDS011;56762;49.494;11.768;2023-06-26T03:53:45;7.60;;;3.90;;
69542;SDS011;56762;49.494;11.768;2023-06-26T03:56:13;8.40;;;4.65;;
69542;SDS011;56762;49.494;11.768;2023-06-26T03:58:41;7.72;;;4.85;;
69542;SDS011;56762;49.494;11.768;2023-06-26T04:01:10;7.85;;;4.97;;
69542;SDS011;56762;49.494;11.768;2023-06-26T04:03:38;8.73;;;5.23;;
69542;SDS011;56762;49.494;11.768;2023-06-26T04:06:06;8.63;;;4.60;;
69542;SDS011;56762;49.494;11.768;2023-06-26T04:08:34;8.43;;;5.22;;
69542;SDS011;56762;49.494;11.768;2023-06-26T04:11:01;8.80;;;5.25;;
69542;SDS011;56762;49.494;11.768;2023-06-26T04:13:29;8.88;;;5.28;;
69542;SDS011;56762;49.494;11.768;2023-06-26T04:15:57;8.17;;;4.77;;
69542;SDS011;56762;49.494;11.768;2023-06-26T04:18:26;7.88;;;5.22;;
69542;SDS011;56762;49.494;11.768;2023-06-26T04:21:04;8.65;;;5.28;;
69542;SDS011;56762;49.494;11.768;2023-06-26T04:23:33;7.22;;;4.25;;
69542;SDS011;56762;49.494;11.768;2023-06-26T04:26:01;7.88;;;4.95;;
69542;SDS011;56762;49.494;11.768;2023-06-26T04:28:31;8.50;;;4.80;;
69542;SDS011;56762;49.494;11.768;2023-06-26T04:30:59;7.80;;;5.65;;
69542;SDS011;56762;49.494;11.768;2023-06-26T04:33:28;8.43;;;5.35;;
69542;SDS011;56762;49.494;11.768;2023-06-26T04:35:56;7.43;;;4.75;;
69542;SDS011;56762;49.494;11.768;2023-06-26T04:38:24;8.52;;;5.28;;
69542;SDS011;56762;49.494;11.768;2023-06-26T04:40:52;8.00;;;5.33;;
69542;SDS011;56762;49.494;11.768;2023-06-26T04:43:20;8.85;;;5.72;;
69542;SDS011;56762;49.494;11.768;2023-06-26T04:45:48;9.18;;;5.40;;
69542;SDS011;56762;49.494;11.768;2023-06-26T04:48:15;9.82;;;5.72;;
69542;SDS011;56762;49.494;11.768;2023-06-26T04:50:45;8.23;;;5.75;;
69542;SDS011;56762;49.494;11.768;2023-06-26T04:53:20;8.97;;;4.97;;
69542;SDS011;56762;49.494;11.768;2023-06-26T04:55:49;7.38;;;5.20;;
69542;SDS011;56762;49.494;11.768;2023-06-26T04:58:18;8.60;;;5.68;;
69542;SDS011;56762;49.494;11.768;2023-06-26T05:00:45;8.02;;;5.47;;
69542;SDS011;56762;49.494;11.768;2023-06-26T05:03:14;8.35;;;5.35;;
69542;SDS011;56762;49.494;11.768;2023-06-26T05:05:45;7.87;;;5.47;;
69542;SDS011;56762;49.494;11.768;2023-06-26T05:08:13;7.50;;;4.90;;
69542;SDS011;56762;49.494;11.768;2023-06-26T05:10:42;8.65;;;5.78;;
69542;SDS011;56762;49.494;11.768;2023-06-26T05:13:10;10.43;;;6.22;;
69542;SDS011;56762;49.494;11.768;2023-06-26T05:15:41;8.23;;;5.63;;
69542;SDS011;56762;49.494;11.768;2023-06-26T05:18:09;8.07;;;5.17;;
69542;SDS011;56762;49.494;11.768;2023-06-26T05:20:37;7.22;;;5.68;;
69542;SDS011;56762;49.494;11.768;2023-06-26T05:23:07;10.13;;;5.85;;
69542;SDS011;56762;49.494;11.768;2023-06-26T05:25:38;8.48;;;5.80;;
69542;SDS011;56762;49.494;11.768;2023-06-26T05:28:06;8.05;;;5.35;;
69542;SDS011;56762;49.494;11.768;2023-06-26T05:30:36;9.03;;;5.97;;
69542;SDS011;56762;49.494;11.768;2023-06-26T05:33:05;8.20;;;6.00;;
69542;SDS011;56762;49.494;11.768;2023-06-26T05:35:34;8.70;;;5.68;;
69542;SDS011;56762;49.494;11.768;2023-06-26T05:38:03;9.40;;;6.85;;
69542;SDS011;56762;49.494;11.768;2023-06-26T05:40:34;8.13;;;5.78;;
69542;SDS011;56762;49.494;11.768;2023-06-26T05:43:03;9.17;;;5.73;;
69542;SDS011;56762;49.494;11.768;2023-06-26T05:45:31;7.97;;;5.13;;
69542;SDS011;56762;49.494;11.768;2023-06-26T05:47:59;8.52;;;5.78;;
69542;SDS011;56762;49.494;11.768;2023-06-26T05:50:27;9.80;;;6.45;;
69542;SDS011;56762;49.494;11.768;2023-06-26T05:52:56;12.50;;;7.45;;
69542;SDS011;56762;49.494;11.768;2023-06-26T05:55:24;9.70;;;6.57;;
69542;SDS011;56762;49.494;11.768;2023-06-26T05:57:54;14.13;;;8.57;;
69542;SDS011;56762;49.494;11.768;2023-06-26T06:00:25;16.23;;;10.57;;
69542;SDS011;56762;49.494;11.768;2023-06-26T06:02:54;16.15;;;9.60;;
69542;SDS011;56762;49.494;11.768;2023-06-26T06:05:22;15.32;;;9.52;;
69542;SDS011;56762;49.494;11.768;2023-06-26T06:07:50;15.37;;;9.30;;
69542;SDS011;56762;49.494;11.768;2023-06-26T06:10:18;12.77;;;7.97;;
69542;SDS011;56762;49.494;11.768;2023-06-26T06:12:46;10.55;;;6.60;;
69542;SDS011;56762;49.494;11.768;2023-06-26T06:15:16;8.88;;;5.60;;
69542;SDS011;56762;49.494;11.768;2023-06-26T06:17:44;9.93;;;6.47;;
69542;SDS011;56762;49.494;11.768;2023-06-26T06:20:12;9.00;;;5.63;;
69542;SDS011;56762;49.494;11.768;2023-06-26T06:22:39;9.93;;;6.05;;
69542;SDS011;56762;49.494;11.768;2023-06-26T06:25:08;9.43;;;5.50;;
69542;SDS011;56762;49.494;11.768;2023-06-26T06:27:36;10.73;;;5.70;;
69542;SDS011;56762;49.494;11.768;2023-06-26T06:30:04;7.78;;;5.32;;
69542;SDS011;56762;49.494;11.768;2023-06-26T06:32:35;8.90;;;5.87;;
69542;SDS011;56762;49.494;11.768;2023-06-26T06:35:03;8.02;;;5.20;;
69542;SDS011;56762;49.494;11.768;2023-06-26T06:37:36;8.10;;;4.97;;
69542;SDS011;56762;49.494;11.768;2023-06-26T06:40:05;7.10;;;5.07;;
69542;SDS011;56762;49.494;11.768;2023-06-26T06:42:34;7.93;;;5.55;;
69542;SDS011;56762;49.494;11.768;2023-06-26T06:45:03;7.33;;;4.90;;
69542;SDS011;56762;49.494;11.768;2023-06-26T06:47:32;7.55;;;4.85;;
69542;SDS011;56762;49.494;11.768;2023-06-26T06:50:01;7.75;;;5.07;;
69542;SDS011;56762;49.494;11.768;2023-06-26T06:52:35;8.32;;;5.32;;
69542;SDS011;56762;49.494;11.768;2023-06-26T06:55:04;7.57;;;5.35;;
69542;SDS011;56762;49.494;11.768;2023-06-26T06:57:35;7.40;;;5.17;;
69542;SDS011;56762;49.494;11.768;2023-06-26T07:00:05;6.47;;;4.43;;
69542;SDS011;56762;49.494;11.768;2023-06-26T07:02:35;8.05;;;4.90;;
69542;SDS011;56762;49.494;11.768;2023-06-26T07:05:05;8.02;;;5.47;;
69542;SDS011;56762;49.494;11.768;2023-06-26T07:07:33;7.30;;;5.05;;
69542;SDS011;56762;49.494;11.768;2023-06-26T07:10:03;8.37;;;5.10;;
69542;SDS011;56762;49.494;11.768;2023-06-26T07:12:32;8.07;;;5.18;;
69542;SDS011;56762;49.494;11.768;2023-06-26T07:15:00;7.20;;;4.80;;
69542;SDS011;56762;49.494;11.768;2023-06-26T07:17:29;7.40;;;5.03;;
69542;SDS011;56762;49.494;11.768;2023-06-26T07:19:57;7.45;;;5.40;;
69542;SDS011;56762;49.494;11.768;2023-06-26T07:22:26;6.37;;;4.53;;
69542;SDS011;56762;49.494;11.768;2023-06-26T07:24:54;8.48;;;5.75;;
69542;SDS011;56762;49.494;11.768;2023-06-26T07:27:22;6.18;;;4.70;;
69542;SDS011;56762;49.494;11.768;2023-06-26T07:29:51;8.30;;;4.93;;
69542;SDS011;56762;49.494;11.768;2023-06-26T07:32:19;8.25;;;5.53;;
69542;SDS011;56762;49.494;11.768;2023-06-26T07:34:47;6.13;;;4.53;;
69542;SDS011;56762;49.494;11.768;2023-06-26T07:37:15;6.13;;;4.82;;
69542;SDS011;56762;49.494;11.768;2023-06-26T07:39:44;8.10;;;4.90;;
69542;SDS011;56762;49.494;11.768;2023-06-26T07:42:12;8.30;;;5.10;;
69542;SDS011;56762;49.494;11.768;2023-06-26T07:44:41;6.43;;;4.60;;
69542;SDS011;56762;49.494;11.768;2023-06-26T07:47:09;7.80;;;5.33;;
69542;SDS011;56762;49.494;11.768;2023-06-26T07:49:38;6.68;;;4.50;;
69542;SDS011;56762;49.494;11.768;2023-06-26T07:52:07;6.57;;;4.55;;
69542;SDS011;56762;49.494;11.768;2023-06-26T07:54:36;6.65;;;4.60;;
69542;SDS011;56762;49.494;11.768;2023-06-26T07:57:06;6.38;;;4.38;;
69542;SDS011;56762;49.494;11.768;2023-06-26T07:59:35;7.17;;;4.63;;
69542;SDS011;56762;49.494;11.768;2023-06-26T08:02:03;7.38;;;4.47;;
69542;SDS011;56762;49.494;11.768;2023-06-26T08:04:31;7.70;;;4.18;;
69542;SDS011;56762;49.494;11.768;2023-06-26T08:07:00;6.28;;;4.07;;
69542;SDS011;56762;49.494;11.768;2023-06-26T08:09:30;6.47;;;4.70;;
69542;SDS011;56762;49.494;11.768;2023-06-26T08:11:58;7.30;;;4.60;;
69542;SDS011;56762;49.494;11.768;2023-06-26T08:14:28;6.82;;;4.28;;
69542;SDS011;56762;49.494;11.768;2023-06-26T08:16:57;5.70;;;3.92;;
69542;SDS011;56762;49.494;11.768;2023-06-26T08:19:28;8.20;;;5.00;;
69542;SDS011;56762;49.494;11.768;2023-06-26T08:21:56;6.30;;;3.97;;
69542;SDS011;56762;49.494;11.768;2023-06-26T08:24:23;5.93;;;3.97;;
69542;SDS011;56762;49.494;11.768;2023-06-26T08:26:51;7.22;;;4.07;;
69542;SDS011;56762;49.494;11.768;2023-06-26T08:29:20;6.68;;;3.78;;
69542;SDS011;56762;49.494;11.768;2023-06-26T08:31:48;7.03;;;4.38;;
69542;SDS011;56762;49.494;11.768;2023-06-26T08:34:16;6.07;;;3.70;;
69542;SDS011;56762;49.494;11.768;2023-06-26T08:36:45;5.57;;;3.70;;
69542;SDS011;56762;49.494;11.768;2023-06-26T08:39:12;6.28;;;4.03;;
69542;SDS011;56762;49.494;11.768;2023-06-26T08:41:40;6.13;;;3.85;;
69542;SDS011;56762;49.494;11.768;2023-06-26T08:44:08;7.97;;;4.00;;
69542;SDS011;56762;49.494;11.768;2023-06-26T08:46:37;7.72;;;3.70;;
69542;SDS011;56762;49.494;11.768;2023-06-26T08:49:08;6.43;;;3.90;;
69542;SDS011;56762;49.494;11.768;2023-06-26T08:51:42;7.10;;;4.15;;
69542;SDS011;56762;49.494;11.768;2023-06-26T08:54:16;6.47;;;3.95;;
69542;SDS011;56762;49.494;11.768;2023-06-26T08:56:49;6.82;;;4.13;;
69542;SDS011;56762;49.494;11.768;2023-06-26T08:59:18;6.18;;;4.00;;
69542;SDS011;56762;49.494;11.768;2023-06-26T09:01:47;8.57;;;3.77;;
69542;SDS011;56762;49.494;11.768;2023-06-26T09:04:16;6.68;;;4.10;;
69542;SDS011;56762;49.494;11.768;2023-06-26T09:06:44;6.07;;;4.10;;
69542;SDS011;56762;49.494;11.768;2023-06-26T09:09:12;8.00;;;4.25;;
69542;SDS011;56762;49.494;11.768;2023-06-26T09:11:40;6.35;;;4.20;;
69542;SDS011;56762;49.494;11.768;2023-06-26T09:14:08;6.67;;;3.90;;
69542;SDS011;56762;49.494;11.768;2023-06-26T09:16:39;6.88;;;4.30;;
69542;SDS011;56762;49.494;11.768;2023-06-26T09:19:09;5.97;;;3.60;;
69542;SDS011;56762;49.494;11.768;2023-06-26T09:21:39;6.30;;;3.63;;
69542;SDS011;56762;49.494;11.768;2023-06-26T09:24:08;6.57;;;3.80;;
69542;SDS011;56762;49.494;11.768;2023-06-26T09:26:37;6.20;;;3.60;;
69542;SDS011;56762;49.494;11.768;2023-06-26T09:29:06;8.82;;;4.15;;
69542;SDS011;56762;49.494;11.768;2023-06-26T09:31:35;7.18;;;4.25;;
69542;SDS011;56762;49.494;11.768;2023-06-26T09:34:08;6.10;;;3.85;;
69542;SDS011;56762;49.494;11.768;2023-06-26T09:36:36;6.57;;;3.97;;
69542;SDS011;56762;49.494;11.768;2023-06-26T09:39:07;6.27;;;3.97;;
69542;SDS011;56762;49.494;11.768;2023-06-26T09:41:40;6.32;;;3.70;;
69542;SDS011;56762;49.494;11.768;2023-06-26T09:44:09;7.45;;;3.97;;
69542;SDS011;56762;49.494;11.768;2023-06-26T09:46:38;6.90;;;4.60;;
69542;SDS011;56762;49.494;11.768;2023-06-26T09:49:07;8.43;;;4.82;;
69542;SDS011;56762;49.494;11.768;2023-06-26T09:51:37;6.57;;;4.20;;
69542;SDS011;56762;49.494;11.768;2023-06-26T09:54:06;7.00;;;3.92;;
69542;SDS011;56762;49.494;11.768;2023-06-26T09:56:36;6.40;;;3.67;;
69542;SDS011;56762;49.494;11.768;2023-06-26T09:59:05;5.93;;;3.90;;
69542;SDS011;56762;49.494;11.768;2023-06-26T10:01:33;6.68;;;4.28;;
69542;SDS011;56762;49.494;11.768;2023-06-26T10:04:05;7.43;;;4.40;;
69542;SDS011;56762;49.494;11.768;2023-06-26T10:06:34;6.00;;;4.20;;
69542;SDS011;56762;49.494;11.768;2023-06-26T10:09:04;6.40;;;4.20;;
69542;SDS011;56762;49.494;11.768;2023-06-26T10:11:34;6.68;;;4.32;;
69542;SDS011;56762;49.494;11.768;2023-06-26T10:14:07;6.50;;;4.20;;
69542;SDS011;56762;49.494;11.768;2023-06-26T10:16:43;7.53;;;4.47;;
69542;SDS011;56762;49.494;11.768;2023-06-26T10:19:12;7.55;;;3.90;;
69542;SDS011;56762;49.494;11.768;2023-06-26T10:21:41;6.68;;;3.97;;
69542;SDS011;56762;49.494;11.768;2023-06-26T10:24:09;6.35;;;4.05;;
69542;SDS011;56762;49.494;11.768;2023-06-26T10:26:42;6.03;;;3.83;;
69542;SDS011;56762;49.494;11.768;2023-06-26T10:29:12;6.97;;;4.77;;
69542;SDS011;56762;49.494;11.768;2023-06-26T10:31:42;7.05;;;4.28;;
69542;SDS011;56762;49.494;11.768;2023-06-26T10:34:13;8.45;;;4.45;;
69542;SDS011;56762;49.494;11.768;2023-06-26T10:36:41;5.80;;;4.20;;
69542;SDS011;56762;49.494;11.768;2023-06-26T10:39:09;7.55;;;4.43;;
69542;SDS011;56762;49.494;11.768;2023-06-26T10:41:37;6.03;;;4.03;;
69542;SDS011;56762;49.494;11.768;2023-06-26T10:44:27;7.68;;;4.35;;
69542;SDS011;56762;49.494;11.768;2023-06-26T10:47:07;6.78;;;4.53;;
69542;SDS011;56762;49.494;11.768;2023-06-26T10:49:36;6.80;;;4.28;;
69542;SDS011;56762;49.494;11.768;2023-06-26T10:52:05;6.68;;;4.65;;
69542;SDS011;56762;49.494;11.768;2023-06-26T10:54:34;6.73;;;4.50;;
69542;SDS011;56762;49.494;11.768;2023-06-26T10:57:02;9.35;;;5.93;;
69542;SDS011;56762;49.494;11.768;2023-06-26T10:59:38;8.15;;;5.38;;
69542;SDS011;56762;49.494;11.768;2023-06-26T11:02:06;6.55;;;4.38;;
69542;SDS011;56762;49.494;11.768;2023-06-26T11:04:38;7.97;;;4.60;;
69542;SDS011;56762;49.494;11.768;2023-06-26T11:07:14;9.10;;;4.60;;
69542;SDS011;56762;49.494;11.768;2023-06-26T11:09:53;6.68;;;4.53;;
69542;SDS011;56762;49.494;11.768;2023-06-26T11:12:35;7.53;;;4.97;;
69542;SDS011;56762;49.494;11.768;2023-06-26T11:15:08;5.95;;;4.00;;
69542;SDS011;56762;49.494;11.768;2023-06-26T11:17:37;7.18;;;4.68;;
69542;SDS011;56762;49.494;11.768;2023-06-26T11:20:05;7.07;;;4.13;;
69542;SDS011;56762;49.494;11.768;2023-06-26T11:22:35;6.15;;;4.38;;
69542;SDS011;56762;49.494;11.768;2023-06-26T11:25:04;6.65;;;4.43;;
69542;SDS011;56762;49.494;11.768;2023-06-26T11:27:35;6.82;;;4.20;;
69542;SDS011;56762;49.494;11.768;2023-06-26T11:30:06;6.78;;;3.83;;
69542;SDS011;56762;49.494;11.768;2023-06-26T11:32:37;7.20;;;4.23;;
69542;SDS011;56762;49.494;11.768;2023-06-26T11:35:06;7.97;;;4.70;;
69542;SDS011;56762;49.494;11.768;2023-06-26T11:37:35;7.45;;;4.40;;
69542;SDS011;56762;49.494;11.768;2023-06-26T11:40:16;6.28;;;4.30;;
69542;SDS011;56762;49.494;11.768;2023-06-26T11:42:45;6.50;;;4.55;;
69542;SDS011;56762;49.494;11.768;2023-06-26T11:45:14;6.53;;;4.30;;
69542;SDS011;56762;49.494;11.768;2023-06-26T11:47:42;6.35;;;4.13;;
69542;SDS011;56762;49.494;11.768;2023-06-26T11:50:14;7.35;;;4.40;;
69542;SDS011;56762;49.494;11.768;2023-06-26T11:52:43;7.15;;;4.57;;
69542;SDS011;56762;49.494;11.768;2023-06-26T11:55:11;6.90;;;4.88;;
69542;SDS011;56762;49.494;11.768;2023-06-26T11:57:39;6.73;;;4.50;;
69542;SDS011;56762;49.494;11.768;2023-06-26T12:00:11;6.13;;;4.40;;
69542;SDS011;56762;49.494;11.768;2023-06-26T12:02:41;7.47;;;4.20;;
69542;SDS011;56762;49.494;11.768;2023-06-26T12:05:09;7.00;;;4.43;;
69542;SDS011;56762;49.494;11.768;2023-06-26T12:07:38;7.00;;;4.20;;
69542;SDS011;56762;49.494;11.768;2023-06-26T12:10:07;6.27;;;4.30;;
69542;SDS011;56762;49.494;11.768;2023-06-26T12:12:38;6.13;;;4.43;;
69542;SDS011;56762;49.494;11.768;2023-06-26T12:15:07;7.70;;;5.15;;
69542;SDS011;56762;49.494;11.768;2023-06-26T12:17:37;8.07;;;4.78;;
69542;SDS011;56762;49.494;11.768;2023-06-26T12:20:18;7.15;;;4.60;;
69542;SDS011;56762;49.494;11.768;2023-06-26T12:22:46;7.90;;;5.07;;
69542;SDS011;56762;49.494;11.768;2023-06-26T12:25:15;7.22;;;4.90;;
69542;SDS011;56762;49.494;11.768;2023-06-26T12:27:44;6.28;;;4.40;;
69542;SDS011;56762;49.494;11.768;2023-06-26T12:30:13;6.63;;;4.38;;
69542;SDS011;56762;49.494;11.768;2023-06-26T12:32:43;6.22;;;4.18;;
69542;SDS011;56762;49.494;11.768;2023-06-26T12:35:12;6.53;;;4.27;;
69542;SDS011;56762;49.494;11.768;2023-06-26T12:37:41;6.68;;;4.00;;
69542;SDS011;56762;49.494;11.768;2023-06-26T12:40:17;7.15;;;3.90;;
69542;SDS011;56762;49.494;11.768;2023-06-26T12:42:49;6.03;;;3.85;;
69542;SDS011;56762;49.494;11.768;2023-06-26T12:45:17;6.03;;;4.13;;
69542;SDS011;56762;49.494;11.768;2023-06-26T12:47:49;6.77;;;4.33;;
69542;SDS011;56762;49.494;11.768;2023-06-26T12:50:17;6.00;;;4.07;;
69542;SDS011;56762;49.494;11.768;2023-06-26T12:52:46;6.40;;;4.00;;
69542;SDS011;56762;49.494;11.768;2023-06-26T12:55:14;6.97;;;4.20;;
69542;SDS011;56762;49.494;11.768;2023-06-26T12:57:43;6.43;;;4.00;;
69542;SDS011;56762;49.494;11.768;2023-06-26T13:00:11;6.70;;;4.20;;
69542;SDS011;56762;49.494;11.768;2023-06-26T13:02:40;6.25;;;4.32;;
69542;SDS011;56762;49.494;11.768;2023-06-26T13:05:08;7.30;;;4.88;;
69542;SDS011;56762;49.494;11.768;2023-06-26T13:07:36;6.60;;;4.13;;
69542;SDS011;56762;49.494;11.768;2023-06-26T13:10:07;8.60;;;4.50;;
69542;SDS011;56762;49.494;11.768;2023-06-26T13:12:35;7.00;;;4.20;;
69542;SDS011;56762;49.494;11.768;2023-06-26T13:15:02;5.45;;;3.35;;
69542;SDS011;56762;49.494;11.768;2023-06-26T13:17:32;4.75;;;3.20;;
69542;SDS011;56762;49.494;11.768;2023-06-26T13:20:00;7.63;;;3.72;;
69542;SDS011;56762;49.494;11.768;2023-06-26T13:22:28;6.13;;;4.13;;
69542;SDS011;56762;49.494;11.768;2023-06-26T13:24:56;6.60;;;4.10;;
69542;SDS011;56762;49.494;11.768;2023-06-26T13:27:25;6.22;;;4.05;;
69542;SDS011;56762;49.494;11.768;2023-06-26T13:29:53;6.10;;;4.10;;
69542;SDS011;56762;49.494;11.768;2023-06-26T13:32:21;7.88;;;4.50;;
69542;SDS011;56762;49.494;11.768;2023-06-26T13:34:48;5.78;;;4.00;;
69542;SDS011;56762;49.494;11.768;2023-06-26T13:37:17;8.17;;;4.10;;
69542;SDS011;56762;49.494;11.768;2023-06-26T13:39:44;6.25;;;3.83;;
69542;SDS011;56762;49.494;11.768;2023-06-26T13:42:16;5.72;;;4.05;;
69542;SDS011;56762;49.494;11.768;2023-06-26T13:44:45;5.82;;;3.85;;
69542;SDS011;56762;49.494;11.768;2023-06-26T13:47:28;8.52;;;4.93;;
69542;SDS011;56762;49.494;11.768;2023-06-26T13:49:56;5.80;;;3.90;;
69542;SDS011;56762;49.494;11.768;2023-06-26T13:52:24;5.93;;;3.47;;
69542;SDS011;56762;49.494;11.768;2023-06-26T13:54:52;5.53;;;3.78;;
69542;SDS011;56762;49.494;11.768;2023-06-26T13:57:19;7.40;;;3.88;;
69542;SDS011;56762;49.494;11.768;2023-06-26T13:59:50;5.18;;;3.47;;
69542;SDS011;56762;49.494;11.768;2023-06-26T14:02:17;5.60;;;3.90;;
69542;SDS011;56762;49.494;11.768;2023-06-26T14:04:46;6.10;;;3.55;;
69542;SDS011;56762;49.494;11.768;2023-06-26T14:07:13;6.05;;;3.60;;
69542;SDS011;56762;49.494;11.768;2023-06-26T14:09:42;6.15;;;3.88;;
69542;SDS011;56762;49.494;11.768;2023-06-26T14:12:09;5.75;;;4.05;;
69542;SDS011;56762;49.494;11.768;2023-06-26T14:14:37;5.33;;;3.50;;
69542;SDS011;56762;49.494;11.768;2023-06-26T14:17:07;5.50;;;3.83;;
69542;SDS011;56762;49.494;11.768;2023-06-26T14:19:35;5.78;;;3.88;;
69542;SDS011;56762;49.494;11.768;2023-06-26T14:22:03;5.75;;;3.58;;
69542;SDS011;56762;49.494;11.768;2023-06-26T14:24:31;6.07;;;4.25;;
69542;SDS011;56762;49.494;11.768;2023-06-26T14:26:59;5.67;;;3.77;;
69542;SDS011;56762;49.494;11.768;2023-06-26T14:29:27;6.18;;;4.20;;
69542;SDS011;56762;49.494;11.768;2023-06-26T14:31:54;6.32;;;4.18;;
69542;SDS011;56762;49.494;11.768;2023-06-26T14:34:24;5.05;;;3.53;;
69542;SDS011;56762;49.494;11.768;2023-06-26T14:36:51;5.95;;;3.75;;
69542;SDS011;56762;49.494;11.768;2023-06-26T14:39:20;5.83;;;3.97;;
69542;SDS011;56762;49.494;11.768;2023-06-26T14:41:48;7.97;;;3.80;;
69542;SDS011;56762;49.494;11.768;2023-06-26T14:44:16;5.18;;;3.35;;